sensor_id;sensor_type;location;lat;lon;timestamp;P1;durP1;ratioP1;P2;durP2;ratioP2
26261;SDS011;13988;52.446;13.280;2023-07-16T00:02:03;2.38;;;1.90;;
26261;SDS011;13988;52.446;13.280;2023-07-16T00:04:30;2.05;;;1.85;;
26261;SDS011;13988;52.446;13.280;2023-07-16T00:06:56;4.38;;;2.10;;
26261;SDS011;13988;52.446;13.280;2023-07-16T00:09:22;2.75;;;2.05;;
26261;SDS011;13988;52.446;13.280;2023-07-16T00:11:48;2.38;;;2.00;;
26261;SDS011;13988;52.446;13.280;2023-07-16T00:14:14;3.15;;;2.33;;
26261;SDS011;13988;52.446;13.280;2023-07-16T00:16:39;3.13;;;2.35;;
26261;SDS011;13988;52.446;13.280;2023-07-16T00:19:05;2.75;;;2.55;;
26261;SDS011;13988;52.446;13.280;2023-07-16T00:21:30;2.92;;;2.15;;
26261;SDS011;13988;52.446;13.280;2023-07-16T00:23:56;2.05;;;1.85;;
26261;SDS011;13988;52.446;13.280;2023-07-16T00:26:22;3.90;;;1.80;;
26261;SDS011;13988;52.446;13.280;2023-07-16T00:28:48;1.70;;;1.60;;
26261;SDS011;13988;52.446;13.280;2023-07-16T00:31:13;2.00;;;1.80;;
26261;SDS011;13988;52.446;13.280;2023-07-16T00:33:39;3.38;;;2.08;;
26261;SDS011;13988;52.446;13.280;2023-07-16T00:36:04;3.78;;;1.70;;
26261;SDS011;13988;52.446;13.280;2023-07-16T00:38:30;4.03;;;2.00;;
26261;SDS011;13988;52.446;13.280;2023-07-16T00:40:56;1.95;;;1.77;;
26261;SDS011;13988;52.446;13.280;2023-07-16T00:43:22;2.08;;;1.88;;
26261;SDS011;13988;52.446;13.280;2023-07-16T00:45:47;2.38;;;2.08;;
26261;SDS011;13988;52.446;13.280;2023-07-16T00:48:14;3.05;;;2.13;;
26261;SDS011;13988;52.446;13.280;2023-07-16T00:50:40;2.70;;;2.40;;
26261;SDS011;13988;52.446;13.280;2023-07-16T00:53:06;2.10;;;1.90;;
26261;SDS011;13988;52.446;13.280;2023-07-16T00:55:37;2.90;;;2.60;;
26261;SDS011;13988;52.446;13.280;2023-07-16T00:58:04;2.90;;;2.60;;
26261;SDS011;13988;52.446;13.280;2023-07-16T01:00:32;2.75;;;2.55;;
26261;SDS011;13988;52.446;13.280;2023-07-16T01:02:59;2.97;;;2.67;;
26261;SDS011;13988;52.446;13.280;2023-07-16T01:05:27;3.03;;;2.55;;
26261;SDS011;13988;52.446;13.280;2023-07-16T01:08:04;4.15;;;2.63;;
26261;SDS011;13988;52.446;13.280;2023-07-16T01:10:33;3.05;;;2.65;;
26261;SDS011;13988;52.446;13.280;2023-07-16T01:12:59;2.88;;;2.42;;
26261;SDS011;13988;52.446;13.280;2023-07-16T01:15:25;3.13;;;2.78;;
26261;SDS011;13988;52.446;13.280;2023-07-16T01:17:51;2.42;;;2.10;;
26261;SDS011;13988;52.446;13.280;2023-07-16T01:20:16;2.70;;;2.50;;
26261;SDS011;13988;52.446;13.280;2023-07-16T01:22:55;3.28;;;2.65;;
26261;SDS011;13988;52.446;13.280;2023-07-16T01:31:11;3.05;;;2.60;;
26261;SDS011;13988;52.446;13.280;2023-07-16T01:33:37;5.78;;;3.40;;
26261;SDS011;13988;52.446;13.280;2023-07-16T01:36:05;3.20;;;2.90;;
26261;SDS011;13988;52.446;13.280;2023-07-16T01:38:33;4.43;;;3.17;;
26261;SDS011;13988;52.446;13.280;2023-07-16T01:41:00;4.55;;;3.00;;
26261;SDS011;13988;52.446;13.280;2023-07-16T01:43:25;4.75;;;2.70;;
26261;SDS011;13988;52.446;13.280;2023-07-16T01:45:51;3.72;;;2.92;;
26261;SDS011;13988;52.446;13.280;2023-07-16T01:50:54;2.95;;;2.65;;
26261;SDS011;13988;52.446;13.280;2023-07-16T01:53:20;3.67;;;2.83;;
26261;SDS011;13988;52.446;13.280;2023-07-16T01:55:46;3.70;;;2.90;;
26261;SDS011;13988;52.446;13.280;2023-07-16T01:58:11;2.90;;;2.50;;
26261;SDS011;13988;52.446;13.280;2023-07-16T02:00:37;3.15;;;2.63;;
26261;SDS011;13988;52.446;13.280;2023-07-16T02:03:03;2.35;;;2.13;;
26261;SDS011;13988;52.446;13.280;2023-07-16T02:05:29;3.72;;;2.50;;
26261;SDS011;13988;52.446;13.280;2023-07-16T02:07:54;2.38;;;2.13;;
26261;SDS011;13988;52.446;13.280;2023-07-16T02:10:20;2.67;;;2.22;;
26261;SDS011;13988;52.446;13.280;2023-07-16T02:12:46;2.30;;;1.75;;
26261;SDS011;13988;52.446;13.280;2023-07-16T02:15:11;2.70;;;2.15;;
26261;SDS011;13988;52.446;13.280;2023-07-16T02:17:37;2.97;;;1.85;;
26261;SDS011;13988;52.446;13.280;2023-07-16T02:20:03;2.53;;;2.08;;
26261;SDS011;13988;52.446;13.280;2023-07-16T02:22:32;3.47;;;1.73;;
26261;SDS011;13988;52.446;13.280;2023-07-16T02:24:59;2.50;;;2.30;;
26261;SDS011;13988;52.446;13.280;2023-07-16T02:27:24;3.00;;;1.80;;
26261;SDS011;13988;52.446;13.280;2023-07-16T02:29:50;4.57;;;2.05;;
26261;SDS011;13988;52.446;13.280;2023-07-16T02:32:15;2.67;;;2.10;;
26261;SDS011;13988;52.446;13.280;2023-07-16T02:34:41;2.78;;;2.53;;
26261;SDS011;13988;52.446;13.280;2023-07-16T02:37:07;2.53;;;2.33;;
26261;SDS011;13988;52.446;13.280;2023-07-16T02:39:33;2.78;;;2.58;;
26261;SDS011;13988;52.446;13.280;2023-07-16T02:41:59;2.47;;;1.83;;
26261;SDS011;13988;52.446;13.280;2023-07-16T02:44:24;2.13;;;1.92;;
26261;SDS011;13988;52.446;13.280;2023-07-16T02:46:50;2.17;;;1.98;;
26261;SDS011;13988;52.446;13.280;2023-07-16T02:49:16;2.20;;;2.00;;
26261;SDS011;13988;52.446;13.280;2023-07-16T02:51:41;3.40;;;1.90;;
26261;SDS011;13988;52.446;13.280;2023-07-16T02:54:07;3.38;;;1.98;;
26261;SDS011;13988;52.446;13.280;2023-07-16T02:56:33;2.10;;;1.67;;
26261;SDS011;13988;52.446;13.280;2023-07-16T02:58:59;4.18;;;1.88;;
26261;SDS011;13988;52.446;13.280;2023-07-16T03:01:25;2.08;;;1.88;;
26261;SDS011;13988;52.446;13.280;2023-07-16T03:03:50;2.85;;;1.77;;
26261;SDS011;13988;52.446;13.280;2023-07-16T03:06:16;3.20;;;1.90;;
26261;SDS011;13988;52.446;13.280;2023-07-16T03:08:42;1.88;;;1.77;;
26261;SDS011;13988;52.446;13.280;2023-07-16T03:11:10;3.60;;;2.20;;
26261;SDS011;13988;52.446;13.280;2023-07-16T03:13:36;3.58;;;2.33;;
26261;SDS011;13988;52.446;13.280;2023-07-16T03:16:01;2.97;;;1.60;;
26261;SDS011;13988;52.446;13.280;2023-07-16T03:18:28;1.95;;;1.42;;
26261;SDS011;13988;52.446;13.280;2023-07-16T03:20:54;2.28;;;1.77;;
26261;SDS011;13988;52.446;13.280;2023-07-16T03:23:21;2.00;;;1.88;;
26261;SDS011;13988;52.446;13.280;2023-07-16T03:25:46;1.77;;;1.48;;
26261;SDS011;13988;52.446;13.280;2023-07-16T03:28:12;2.65;;;1.50;;
26261;SDS011;13988;52.446;13.280;2023-07-16T03:30:38;2.88;;;1.90;;
26261;SDS011;13988;52.446;13.280;2023-07-16T03:33:04;2.72;;;1.65;;
26261;SDS011;13988;52.446;13.280;2023-07-16T03:35:30;3.75;;;1.83;;
26261;SDS011;13988;52.446;13.280;2023-07-16T03:37:55;1.50;;;1.35;;
26261;SDS011;13988;52.446;13.280;2023-07-16T03:40:25;2.97;;;1.63;;
26261;SDS011;13988;52.446;13.280;2023-07-16T03:42:51;1.45;;;1.35;;
26261;SDS011;13988;52.446;13.280;2023-07-16T03:45:17;2.85;;;1.88;;
26261;SDS011;13988;52.446;13.280;2023-07-16T03:47:43;3.28;;;1.40;;
26261;SDS011;13988;52.446;13.280;2023-07-16T03:50:08;2.53;;;1.30;;
26261;SDS011;13988;52.446;13.280;2023-07-16T03:52:34;5.05;;;1.38;;
26261;SDS011;13988;52.446;13.280;2023-07-16T03:55:00;1.85;;;1.40;;
26261;SDS011;13988;52.446;13.280;2023-07-16T03:57:27;4.40;;;1.73;;
26261;SDS011;13988;52.446;13.280;2023-07-16T03:59:54;1.65;;;1.42;;
26261;SDS011;13988;52.446;13.280;2023-07-16T04:02:19;1.30;;;1.20;;
26261;SDS011;13988;52.446;13.280;2023-07-16T04:04:45;3.42;;;1.67;;
26261;SDS011;13988;52.446;13.280;2023-07-16T04:07:11;1.73;;;1.50;;
26261;SDS011;13988;52.446;13.280;2023-07-16T04:09:37;1.80;;;1.40;;
26261;SDS011;13988;52.446;13.280;2023-07-16T04:12:03;2.72;;;1.45;;
26261;SDS011;13988;52.446;13.280;2023-07-16T04:14:30;1.85;;;1.70;;
26261;SDS011;13988;52.446;13.280;2023-07-16T04:16:56;2.67;;;2.13;;
26261;SDS011;13988;52.446;13.280;2023-07-16T04:19:21;4.22;;;2.00;;
26261;SDS011;13988;52.446;13.280;2023-07-16T04:21:47;3.17;;;2.17;;
26261;SDS011;13988;52.446;13.280;2023-07-16T04:24:12;3.17;;;1.73;;
26261;SDS011;13988;52.446;13.280;2023-07-16T04:26:38;2.90;;;1.50;;
26261;SDS011;13988;52.446;13.280;2023-07-16T04:29:03;2.95;;;1.55;;
26261;SDS011;13988;52.446;13.280;2023-07-16T04:31:29;2.28;;;2.08;;
26261;SDS011;13988;52.446;13.280;2023-07-16T04:33:55;2.05;;;1.80;;
26261;SDS011;13988;52.446;13.280;2023-07-16T04:36:20;1.83;;;1.65;;
26261;SDS011;13988;52.446;13.280;2023-07-16T04:38:46;3.35;;;1.58;;
26261;SDS011;13988;52.446;13.280;2023-07-16T04:41:11;1.88;;;1.65;;
26261;SDS011;13988;52.446;13.280;2023-07-16T04:43:38;4.53;;;2.35;;
26261;SDS011;13988;52.446;13.280;2023-07-16T04:46:04;2.53;;;1.90;;
26261;SDS011;13988;52.446;13.280;2023-07-16T04:48:29;2.20;;;2.00;;
26261;SDS011;13988;52.446;13.280;2023-07-16T04:50:55;2.33;;;2.13;;
26261;SDS011;13988;52.446;13.280;2023-07-16T04:53:21;3.55;;;2.22;;
26261;SDS011;13988;52.446;13.280;2023-07-16T04:55:48;3.90;;;2.42;;
26261;SDS011;13988;52.446;13.280;2023-07-16T04:58:14;5.10;;;2.28;;
26261;SDS011;13988;52.446;13.280;2023-07-16T05:00:40;3.40;;;1.75;;
26261;SDS011;13988;52.446;13.280;2023-07-16T05:03:06;2.85;;;2.25;;
26261;SDS011;13988;52.446;13.280;2023-07-16T05:05:32;3.97;;;2.47;;
26261;SDS011;13988;52.446;13.280;2023-07-16T05:07:58;2.40;;;2.20;;
26261;SDS011;13988;52.446;13.280;2023-07-16T05:10:23;3.75;;;2.08;;
26261;SDS011;13988;52.446;13.280;2023-07-16T05:12:49;1.70;;;1.58;;
26261;SDS011;13988;52.446;13.280;2023-07-16T05:15:15;2.53;;;2.00;;
26261;SDS011;13988;52.446;13.280;2023-07-16T05:17:40;2.28;;;2.05;;
26261;SDS011;13988;52.446;13.280;2023-07-16T05:20:06;2.33;;;2.13;;
26261;SDS011;13988;52.446;13.280;2023-07-16T05:22:34;2.65;;;2.25;;
26261;SDS011;13988;52.446;13.280;2023-07-16T05:25:00;4.10;;;2.60;;
26261;SDS011;13988;52.446;13.280;2023-07-16T05:27:26;7.40;;;2.60;;
26261;SDS011;13988;52.446;13.280;2023-07-16T05:29:51;4.78;;;2.45;;
26261;SDS011;13988;52.446;13.280;2023-07-16T05:32:17;3.03;;;2.40;;
26261;SDS011;13988;52.446;13.280;2023-07-16T05:34:43;3.83;;;2.40;;
26261;SDS011;13988;52.446;13.280;2023-07-16T05:37:08;5.85;;;2.33;;
26261;SDS011;13988;52.446;13.280;2023-07-16T05:39:34;2.28;;;1.90;;
26261;SDS011;13988;52.446;13.280;2023-07-16T05:41:59;2.28;;;2.05;;
26261;SDS011;13988;52.446;13.280;2023-07-16T05:44:27;2.75;;;2.28;;
26261;SDS011;13988;52.446;13.280;2023-07-16T05:46:53;3.35;;;2.08;;
26261;SDS011;13988;52.446;13.280;2023-07-16T05:49:19;2.45;;;2.10;;
26261;SDS011;13988;52.446;13.280;2023-07-16T05:51:44;3.10;;;2.47;;
26261;SDS011;13988;52.446;13.280;2023-07-16T05:54:10;3.25;;;2.40;;
26261;SDS011;13988;52.446;13.280;2023-07-16T05:56:36;2.47;;;2.00;;
26261;SDS011;13988;52.446;13.280;2023-07-16T05:59:01;2.40;;;2.20;;
26261;SDS011;13988;52.446;13.280;2023-07-16T06:01:27;3.53;;;1.95;;
26261;SDS011;13988;52.446;13.280;2023-07-16T06:03:52;3.00;;;2.15;;
26261;SDS011;13988;52.446;13.280;2023-07-16T06:06:19;3.67;;;2.03;;
26261;SDS011;13988;52.446;13.280;2023-07-16T06:08:44;2.47;;;2.13;;
26261;SDS011;13988;52.446;13.280;2023-07-16T06:11:11;2.30;;;1.90;;
26261;SDS011;13988;52.446;13.280;2023-07-16T06:13:37;4.75;;;2.05;;
26261;SDS011;13988;52.446;13.280;2023-07-16T06:16:03;5.05;;;2.05;;
26261;SDS011;13988;52.446;13.280;2023-07-16T06:18:29;3.47;;;2.30;;
26261;SDS011;13988;52.446;13.280;2023-07-16T06:20:55;2.72;;;2.25;;
26261;SDS011;13988;52.446;13.280;2023-07-16T06:23:20;3.28;;;2.05;;
26261;SDS011;13988;52.446;13.280;2023-07-16T06:25:46;1.98;;;1.63;;
26261;SDS011;13988;52.446;13.280;2023-07-16T06:28:13;2.45;;;1.95;;
26261;SDS011;13988;52.446;13.280;2023-07-16T06:30:40;2.10;;;1.90;;
26261;SDS011;13988;52.446;13.280;2023-07-16T06:33:05;2.45;;;2.25;;
26261;SDS011;13988;52.446;13.280;2023-07-16T06:35:31;1.90;;;1.80;;
26261;SDS011;13988;52.446;13.280;2023-07-16T06:37:57;6.15;;;2.40;;
26261;SDS011;13988;52.446;13.280;2023-07-16T06:40:23;1.83;;;1.52;;
26261;SDS011;13988;52.446;13.280;2023-07-16T06:42:49;1.85;;;1.73;;
26261;SDS011;13988;52.446;13.280;2023-07-16T06:45:16;2.65;;;1.60;;
26261;SDS011;13988;52.446;13.280;2023-07-16T06:47:42;1.80;;;1.70;;
26261;SDS011;13988;52.446;13.280;2023-07-16T06:50:08;2.35;;;1.50;;
26261;SDS011;13988;52.446;13.280;2023-07-16T06:52:34;1.55;;;1.25;;
26261;SDS011;13988;52.446;13.280;2023-07-16T06:55:00;3.72;;;1.95;;
26261;SDS011;13988;52.446;13.280;2023-07-16T06:57:25;1.75;;;1.52;;
26261;SDS011;13988;52.446;13.280;2023-07-16T06:59:51;1.45;;;1.30;;
26261;SDS011;13988;52.446;13.280;2023-07-16T07:02:17;2.10;;;1.85;;
26261;SDS011;13988;52.446;13.280;2023-07-16T07:04:43;1.60;;;1.50;;
26261;SDS011;13988;52.446;13.280;2023-07-16T07:07:08;1.63;;;1.52;;
26261;SDS011;13988;52.446;13.280;2023-07-16T07:09:34;2.00;;;1.58;;
26261;SDS011;13988;52.446;13.280;2023-07-16T07:12:00;1.67;;;1.52;;
26261;SDS011;13988;52.446;13.280;2023-07-16T07:14:26;3.28;;;1.67;;
26261;SDS011;13988;52.446;13.280;2023-07-16T07:16:51;2.20;;;1.85;;
26261;SDS011;13988;52.446;13.280;2023-07-16T07:19:17;2.40;;;1.95;;
26261;SDS011;13988;52.446;13.280;2023-07-16T07:21:42;2.78;;;1.85;;
26261;SDS011;13988;52.446;13.280;2023-07-16T07:24:08;1.80;;;1.55;;
26261;SDS011;13988;52.446;13.280;2023-07-16T07:26:34;4.22;;;1.83;;
26261;SDS011;13988;52.446;13.280;2023-07-16T07:29:00;2.33;;;1.80;;
26261;SDS011;13988;52.446;13.280;2023-07-16T07:31:25;4.50;;;2.30;;
26261;SDS011;13988;52.446;13.280;2023-07-16T07:33:51;2.25;;;1.80;;
26261;SDS011;13988;52.446;13.280;2023-07-16T07:36:18;2.25;;;1.80;;
26261;SDS011;13988;52.446;13.280;2023-07-16T07:38:44;1.88;;;1.77;;
26261;SDS011;13988;52.446;13.280;2023-07-16T07:41:09;1.88;;;1.73;;
26261;SDS011;13988;52.446;13.280;2023-07-16T07:43:35;2.10;;;1.90;;
26261;SDS011;13988;52.446;13.280;2023-07-16T07:46:01;1.65;;;1.55;;
26261;SDS011;13988;52.446;13.280;2023-07-16T07:48:27;1.83;;;1.63;;
26261;SDS011;13988;52.446;13.280;2023-07-16T07:50:52;2.58;;;1.52;;
26261;SDS011;13988;52.446;13.280;2023-07-16T07:53:18;2.78;;;1.55;;
26261;SDS011;13988;52.446;13.280;2023-07-16T07:55:44;2.50;;;2.25;;
26261;SDS011;13988;52.446;13.280;2023-07-16T07:58:10;2.40;;;1.92;;
26261;SDS011;13988;52.446;13.280;2023-07-16T08:00:36;2.00;;;1.73;;
26261;SDS011;13988;52.446;13.280;2023-07-16T08:03:02;3.08;;;1.85;;
26261;SDS011;13988;52.446;13.280;2023-07-16T08:05:28;1.77;;;1.67;;
26261;SDS011;13988;52.446;13.280;2023-07-16T08:07:53;2.42;;;1.83;;
26261;SDS011;13988;52.446;13.280;2023-07-16T08:10:20;2.08;;;1.85;;
26261;SDS011;13988;52.446;13.280;2023-07-16T08:12:46;1.85;;;1.52;;
26261;SDS011;13988;52.446;13.280;2023-07-16T08:15:12;2.35;;;1.55;;
26261;SDS011;13988;52.446;13.280;2023-07-16T08:17:41;1.70;;;1.60;;
26261;SDS011;13988;52.446;13.280;2023-07-16T08:20:08;1.67;;;1.40;;
26261;SDS011;13988;52.446;13.280;2023-07-16T08:22:34;3.20;;;1.95;;
26261;SDS011;13988;52.446;13.280;2023-07-16T08:24:59;2.72;;;1.52;;
26261;SDS011;13988;52.446;13.280;2023-07-16T08:27:25;5.32;;;1.45;;
26261;SDS011;13988;52.446;13.280;2023-07-16T08:29:51;2.88;;;1.48;;
26261;SDS011;13988;52.446;13.280;2023-07-16T08:32:17;1.40;;;1.30;;
26261;SDS011;13988;52.446;13.280;2023-07-16T08:34:43;3.72;;;1.45;;
26261;SDS011;13988;52.446;13.280;2023-07-16T08:37:09;3.00;;;1.63;;
26261;SDS011;13988;52.446;13.280;2023-07-16T08:39:34;2.90;;;1.80;;
26261;SDS011;13988;52.446;13.280;2023-07-16T08:42:00;4.22;;;1.40;;
26261;SDS011;13988;52.446;13.280;2023-07-16T08:44:26;1.58;;;1.20;;
26261;SDS011;13988;52.446;13.280;2023-07-16T08:46:53;3.20;;;1.40;;
26261;SDS011;13988;52.446;13.280;2023-07-16T08:49:19;2.40;;;1.35;;
26261;SDS011;13988;52.446;13.280;2023-07-16T08:51:47;2.63;;;1.50;;
26261;SDS011;13988;52.446;13.280;2023-07-16T08:54:14;2.92;;;1.45;;
26261;SDS011;13988;52.446;13.280;2023-07-16T08:56:44;3.38;;;1.42;;
26261;SDS011;13988;52.446;13.280;2023-07-16T08:59:12;2.55;;;1.60;;
26261;SDS011;13988;52.446;13.280;2023-07-16T09:01:39;2.63;;;1.70;;
26261;SDS011;13988;52.446;13.280;2023-07-16T09:04:06;2.38;;;1.50;;
26261;SDS011;13988;52.446;13.280;2023-07-16T09:06:32;1.75;;;1.65;;
26261;SDS011;13988;52.446;13.280;2023-07-16T09:08:58;1.80;;;1.48;;
26261;SDS011;13988;52.446;13.280;2023-07-16T09:11:23;3.47;;;1.40;;
26261;SDS011;13988;52.446;13.280;2023-07-16T09:13:49;1.58;;;1.48;;
26261;SDS011;13988;52.446;13.280;2023-07-16T09:16:17;1.77;;;1.42;;
26261;SDS011;13988;52.446;13.280;2023-07-16T09:18:43;2.92;;;1.70;;
26261;SDS011;13988;52.446;13.280;2023-07-16T09:21:10;2.70;;;1.30;;
26261;SDS011;13988;52.446;13.280;2023-07-16T09:23:36;4.20;;;1.90;;
26261;SDS011;13988;52.446;13.280;2023-07-16T09:26:02;2.28;;;1.77;;
26261;SDS011;13988;52.446;13.280;2023-07-16T09:28:30;2.92;;;1.60;;
26261;SDS011;13988;52.446;13.280;2023-07-16T09:30:58;3.25;;;1.70;;
26261;SDS011;13988;52.446;13.280;2023-07-16T09:33:30;3.45;;;2.00;;
26261;SDS011;13988;52.446;13.280;2023-07-16T09:35:57;1.73;;;1.50;;
26261;SDS011;13988;52.446;13.280;2023-07-16T09:38:23;4.00;;;1.48;;
26261;SDS011;13988;52.446;13.280;2023-07-16T09:40:49;2.97;;;1.70;;
26261;SDS011;13988;52.446;13.280;2023-07-16T09:43:17;1.60;;;1.50;;
26261;SDS011;13988;52.446;13.280;2023-07-16T09:45:43;2.67;;;1.60;;
26261;SDS011;13988;52.446;13.280;2023-07-16T09:48:09;2.65;;;1.85;;
26261;SDS011;13988;52.446;13.280;2023-07-16T09:50:35;2.28;;;1.50;;
26261;SDS011;13988;52.446;13.280;2023-07-16T09:53:03;1.70;;;1.52;;
26261;SDS011;13988;52.446;13.280;2023-07-16T09:55:30;3.10;;;1.80;;
26261;SDS011;13988;52.446;13.280;2023-07-16T09:57:59;4.10;;;2.00;;
26261;SDS011;13988;52.446;13.280;2023-07-16T10:00:27;2.15;;;1.33;;
26261;SDS011;13988;52.446;13.280;2023-07-16T10:02:53;1.75;;;1.50;;
26261;SDS011;13988;52.446;13.280;2023-07-16T10:05:26;1.40;;;1.30;;
26261;SDS011;13988;52.446;13.280;2023-07-16T10:07:59;1.58;;;1.48;;
26261;SDS011;13988;52.446;13.280;2023-07-16T10:10:38;1.85;;;1.50;;
26261;SDS011;13988;52.446;13.280;2023-07-16T10:13:11;1.60;;;1.50;;
26261;SDS011;13988;52.446;13.280;2023-07-16T10:15:38;1.42;;;1.20;;
26261;SDS011;13988;52.446;13.280;2023-07-16T10:18:04;1.48;;;1.30;;
26261;SDS011;13988;52.446;13.280;2023-07-16T10:20:36;2.58;;;1.55;;
26261;SDS011;13988;52.446;13.280;2023-07-16T10:23:12;4.88;;;1.52;;
26261;SDS011;13988;52.446;13.280;2023-07-16T10:25:39;1.63;;;1.50;;
26261;SDS011;13988;52.446;13.280;2023-07-16T10:28:05;1.77;;;1.45;;
26261;SDS011;13988;52.446;13.280;2023-07-16T10:30:31;1.63;;;1.52;;
26261;SDS011;13988;52.446;13.280;2023-07-16T10:32:57;2.40;;;1.70;;
26261;SDS011;13988;52.446;13.280;2023-07-16T10:35:25;2.55;;;1.30;;
26261;SDS011;13988;52.446;13.280;2023-07-16T10:37:51;2.05;;;1.85;;
26261;SDS011;13988;52.446;13.280;2023-07-16T10:40:16;1.88;;;1.60;;
26261;SDS011;13988;52.446;13.280;2023-07-16T10:42:42;2.40;;;1.70;;
26261;SDS011;13988;52.446;13.280;2023-07-16T10:45:09;3.83;;;1.60;;
26261;SDS011;13988;52.446;13.280;2023-07-16T10:47:36;2.63;;;1.70;;
26261;SDS011;13988;52.446;13.280;2023-07-16T10:50:03;2.63;;;1.58;;
26261;SDS011;13988;52.446;13.280;2023-07-16T10:52:33;2.08;;;1.60;;
26261;SDS011;13988;52.446;13.280;2023-07-16T10:55:00;5.70;;;1.33;;
26261;SDS011;13988;52.446;13.280;2023-07-16T10:57:26;1.50;;;1.40;;
26261;SDS011;13988;52.446;13.280;2023-07-16T10:59:53;1.60;;;1.45;;
26261;SDS011;13988;52.446;13.280;2023-07-16T11:02:21;2.35;;;1.58;;
26261;SDS011;13988;52.446;13.280;2023-07-16T11:04:48;2.88;;;2.03;;
26261;SDS011;13988;52.446;13.280;2023-07-16T11:07:14;1.60;;;1.50;;
26261;SDS011;13988;52.446;13.280;2023-07-16T11:09:41;1.63;;;1.50;;
26261;SDS011;13988;52.446;13.280;2023-07-16T11:12:23;2.63;;;1.55;;
26261;SDS011;13988;52.446;13.280;2023-07-16T11:14:53;1.58;;;1.48;;
26261;SDS011;13988;52.446;13.280;2023-07-16T11:17:19;3.13;;;1.48;;
26261;SDS011;13988;52.446;13.280;2023-07-16T11:19:48;2.42;;;1.50;;
26261;SDS011;13988;52.446;13.280;2023-07-16T11:22:15;5.75;;;1.98;;
26261;SDS011;13988;52.446;13.280;2023-07-16T11:24:41;5.28;;;1.88;;
26261;SDS011;13988;52.446;13.280;2023-07-16T11:29:46;4.30;;;1.98;;
26261;SDS011;13988;52.446;13.280;2023-07-16T11:32:13;1.65;;;1.30;;
26261;SDS011;13988;52.446;13.280;2023-07-16T11:34:53;2.80;;;1.80;;
26261;SDS011;13988;52.446;13.280;2023-07-16T11:37:20;4.40;;;1.50;;
26261;SDS011;13988;52.446;13.280;2023-07-16T11:39:46;1.85;;;1.30;;
26261;SDS011;13988;52.446;13.280;2023-07-16T11:42:12;1.30;;;1.20;;
26261;SDS011;13988;52.446;13.280;2023-07-16T11:44:38;1.52;;;1.42;;
26261;SDS011;13988;52.446;13.280;2023-07-16T11:47:03;2.05;;;1.25;;
26261;SDS011;13988;52.446;13.280;2023-07-16T11:49:29;1.30;;;1.20;;
26261;SDS011;13988;52.446;13.280;2023-07-16T11:51:56;1.38;;;1.27;;
26261;SDS011;13988;52.446;13.280;2023-07-16T11:54:23;1.48;;;1.20;;
26261;SDS011;13988;52.446;13.280;2023-07-16T11:56:49;1.27;;;1.17;;
26261;SDS011;13988;52.446;13.280;2023-07-16T11:59:15;4.10;;;1.27;;
26261;SDS011;13988;52.446;13.280;2023-07-16T12:01:45;3.97;;;1.30;;
26261;SDS011;13988;52.446;13.280;2023-07-16T12:04:12;1.73;;;1.10;;
26261;SDS011;13988;52.446;13.280;2023-07-16T12:06:37;1.63;;;1.15;;
26261;SDS011;13988;52.446;13.280;2023-07-16T12:09:03;1.30;;;1.02;;
26261;SDS011;13988;52.446;13.280;2023-07-16T12:11:29;2.80;;;1.48;;
26261;SDS011;13988;52.446;13.280;2023-07-16T12:13:54;2.33;;;1.40;;
26261;SDS011;13988;52.446;13.280;2023-07-16T12:16:20;3.05;;;1.63;;
26261;SDS011;13988;52.446;13.280;2023-07-16T12:18:46;3.67;;;1.50;;
26261;SDS011;13988;52.446;13.280;2023-07-16T12:21:11;2.10;;;1.40;;
26261;SDS011;13988;52.446;13.280;2023-07-16T12:23:37;2.75;;;1.35;;
26261;SDS011;13988;52.446;13.280;2023-07-16T12:26:02;1.45;;;1.30;;
26261;SDS011;13988;52.446;13.280;2023-07-16T12:28:28;1.48;;;0.95;;
26261;SDS011;13988;52.446;13.280;2023-07-16T12:30:54;3.05;;;1.20;;
26261;SDS011;13988;52.446;13.280;2023-07-16T12:33:19;1.30;;;1.00;;
26261;SDS011;13988;52.446;13.280;2023-07-16T12:35:45;2.17;;;1.40;;
26261;SDS011;13988;52.446;13.280;2023-07-16T12:38:12;1.55;;;1.45;;
26261;SDS011;13988;52.446;13.280;2023-07-16T12:40:37;1.88;;;1.23;;
26261;SDS011;13988;52.446;13.280;2023-07-16T12:43:05;1.60;;;1.40;;
26261;SDS011;13988;52.446;13.280;2023-07-16T12:45:32;2.25;;;1.52;;
26261;SDS011;13988;52.446;13.280;2023-07-16T12:47:57;1.20;;;1.05;;
26261;SDS011;13988;52.446;13.280;2023-07-16T12:50:23;1.40;;;1.30;;
26261;SDS011;13988;52.446;13.280;2023-07-16T12:52:50;3.03;;;1.80;;
26261;SDS011;13988;52.446;13.280;2023-07-16T12:55:17;1.70;;;1.20;;
26261;SDS011;13988;52.446;13.280;2023-07-16T12:57:42;1.40;;;1.13;;
26261;SDS011;13988;52.446;13.280;2023-07-16T13:00:08;2.13;;;1.30;;
26261;SDS011;13988;52.446;13.280;2023-07-16T13:02:35;2.47;;;1.55;;
26261;SDS011;13988;52.446;13.280;2023-07-16T13:05:02;1.67;;;1.23;;
26261;SDS011;13988;52.446;13.280;2023-07-16T13:07:28;2.72;;;1.00;;
26261;SDS011;13988;52.446;13.280;2023-07-16T13:09:54;1.38;;;1.17;;
26261;SDS011;13988;52.446;13.280;2023-07-16T13:12:19;5.65;;;1.40;;
26261;SDS011;13988;52.446;13.280;2023-07-16T13:14:45;2.13;;;1.15;;
26261;SDS011;13988;52.446;13.280;2023-07-16T13:17:10;6.80;;;1.60;;
26261;SDS011;13988;52.446;13.280;2023-07-16T13:19:36;3.15;;;1.48;;
26261;SDS011;13988;52.446;13.280;2023-07-16T13:22:02;2.28;;;1.70;;
26261;SDS011;13988;52.446;13.280;2023-07-16T13:24:27;1.52;;;1.08;;
26261;SDS011;13988;52.446;13.280;2023-07-16T13:26:53;1.30;;;1.20;;
26261;SDS011;13988;52.446;13.280;2023-07-16T13:29:19;1.77;;;1.20;;
26261;SDS011;13988;52.446;13.280;2023-07-16T13:31:44;2.60;;;1.00;;
26261;SDS011;13988;52.446;13.280;2023-07-16T13:34:10;2.95;;;1.20;;
26261;SDS011;13988;52.446;13.280;2023-07-16T13:36:36;1.20;;;1.10;;
26261;SDS011;13988;52.446;13.280;2023-07-16T13:39:01;2.28;;;1.20;;
26261;SDS011;13988;52.446;13.280;2023-07-16T13:41:29;3.10;;;1.30;;
26261;SDS011;13988;52.446;13.280;2023-07-16T13:43:55;4.20;;;2.58;;
26261;SDS011;13988;52.446;13.280;2023-07-16T13:46:21;3.30;;;1.30;;
26261;SDS011;13988;52.446;13.280;2023-07-16T13:48:46;2.85;;;1.48;;
26261;SDS011;13988;52.446;13.280;2023-07-16T13:51:12;1.38;;;1.15;;
26261;SDS011;13988;52.446;13.280;2023-07-16T13:53:38;2.58;;;1.27;;
26261;SDS011;13988;52.446;13.280;2023-07-16T13:56:04;2.72;;;1.60;;
26261;SDS011;13988;52.446;13.280;2023-07-16T13:58:29;1.42;;;1.08;;
26261;SDS011;13988;52.446;13.280;2023-07-16T14:00:55;1.27;;;1.00;;
26261;SDS011;13988;52.446;13.280;2023-07-16T14:03:21;2.67;;;1.55;;
26261;SDS011;13988;52.446;13.280;2023-07-16T14:05:46;2.08;;;1.38;;
26261;SDS011;13988;52.446;13.280;2023-07-16T14:08:12;1.35;;;1.10;;
26261;SDS011;13988;52.446;13.280;2023-07-16T14:10:38;1.45;;;0.90;;
26261;SDS011;13988;52.446;13.280;2023-07-16T14:13:03;2.58;;;1.40;;
26261;SDS011;13988;52.446;13.280;2023-07-16T14:15:29;2.55;;;1.27;;
26261;SDS011;13988;52.446;13.280;2023-07-16T14:17:55;2.28;;;0.90;;
26261;SDS011;13988;52.446;13.280;2023-07-16T14:20:20;1.65;;;1.17;;
26261;SDS011;13988;52.446;13.280;2023-07-16T14:22:46;2.92;;;1.08;;
26261;SDS011;13988;52.446;13.280;2023-07-16T14:25:11;1.35;;;0.95;;
26261;SDS011;13988;52.446;13.280;2023-07-16T14:27:37;1.67;;;1.13;;
26261;SDS011;13988;52.446;13.280;2023-07-16T14:30:03;3.28;;;1.25;;
26261;SDS011;13988;52.446;13.280;2023-07-16T14:32:29;2.25;;;1.20;;
26261;SDS011;13988;52.446;13.280;2023-07-16T14:34:56;1.88;;;1.17;;
26261;SDS011;13988;52.446;13.280;2023-07-16T14:37:22;1.30;;;1.15;;
26261;SDS011;13988;52.446;13.280;2023-07-16T14:39:48;1.80;;;1.00;;